Westville Center, New York
Current Conditions -  °F | °C
As of 10:28 AM on Thursday 18 Dec 2014 (Local Time) from KMSS Reporting Station
Light Snow Light Snow  
Wind Chill: -6°   Ceiling: 1000
Heat Index: -1°   Visibility: 2.5mi
Dew Point: -2°   Wind: 12mph
Humidity: 89%   Direction: 260°W
Pressure: 29.95"   Gusts: NA
Location:  44.9516°N, 74.3293°W
Report Text: KMSS 181528Z AUTO 26010KT 2 1/2SM -SN BR OVC010 M01/M02 A2995 RMK AO2 P0000 T10061022
Loading
Personal Weather Stations






























Interactive Weather Map New forecast layout! Learn more

10-Day Weather Forecast

Advertisements
Track Severe Weather on mobile